Time;durP1;ratioP1;P1;durP2;ratioP2;P2;SDS_P1;SDS_P2;PMS_P1;PMS_P2;Temp;Humidity;BMP_temperature;BMP_pressure;BME280_temperature;BME280_humidity;BME280_pressure;Samples;Min_cycle;Max_cycle;Signal;HPM_P1;HPM_P2
2021/09/14 00:00:46;;;;;;;28.35;12.90;;;;;;;;;;5056291;28;20017;-44
2021/09/14 00:03:12;;;;;;;23.85;11.40;;;;;;;;;;5055968;28;20029;-43
2021/09/14 00:05:38;;;;;;;16.67;7.95;;;;;;;;;;5056167;28;20155;-43
2021/09/14 00:08:04;;;;;;;28.65;16.17;;;;;;;;;;5056270;28;20025;-42
2021/09/14 00:10:31;;;;;;;23.30;12.85;;;;;;;;;;5056191;28;20032;-44
2021/09/14 00:12:57;;;;;;;21.90;10.65;;;;;;;;;;5055982;28;20025;-43
2021/09/14 00:15:23;;;;;;;18.67;9.27;;;;;;;;;;5056089;28;20477;-43
2021/09/14 00:17:49;;;;;;;21.52;11.18;;;;;;;;;;5055996;28;20029;-45
2021/09/14 00:20:15;;;;;;;15.82;8.70;;;;;;;;;;5055756;28;20049;-46
2021/09/14 00:22:41;;;;;;;23.00;12.02;;;;;;;;;;5055803;28;20044;-44
2021/09/14 00:25:10;;;;;;;29.95;14.85;;;;;;;;;;5055940;28;20021;-43
2021/09/14 00:27:38;;;;;;;15.93;10.05;;;;;;;;;;5055798;28;20020;-45
2021/09/14 00:30:05;;;;;;;18.88;9.70;;;;;;;;;;5055829;28;20049;-44
2021/09/14 00:32:33;;;;;;;23.20;12.07;;;;;;;;;;5055655;28;20025;-44
2021/09/14 00:34:59;;;;;;;14.75;8.65;;;;;;;;;;5055358;28;20382;-44
2021/09/14 00:37:25;;;;;;;13.90;7.80;;;;;;;;;;5055538;28;20477;-42
2021/09/14 00:39:51;;;;;;;19.00;8.05;;;;;;;;;;5055519;28;20025;-43
2021/09/14 00:42:17;;;;;;;20.95;8.50;;;;;;;;;;5055500;28;20094;-43
2021/09/14 00:44:44;;;;;;;20.45;9.05;;;;;;;;;;5055457;28;20469;-44
2021/09/14 00:47:10;;;;;;;13.88;9.20;;;;;;;;;;5055455;28;20123;-43
2021/09/14 00:49:36;;;;;;;15.05;7.70;;;;;;;;;;5055245;28;20057;-43
2021/09/14 00:52:02;;;;;;;18.88;7.60;;;;;;;;;;5055283;28;20104;-42
2021/09/14 00:54:28;;;;;;;14.43;7.97;;;;;;;;;;5055267;28;20040;-44
2021/09/14 00:56:57;;;;;;;16.40;8.30;;;;;;;;;;5055312;28;20428;-43
2021/09/14 00:59:25;;;;;;;16.20;8.77;;;;;;;;;;5053979;28;20547;-43
2021/09/14 01:01:52;;;;;;;24.17;10.73;;;;;;;;;;5055077;28;20481;-43
2021/09/14 01:04:18;;;;;;;29.83;10.23;;;;;;;;;;5054918;28;20481;-43
2021/09/14 01:06:45;;;;;;;19.77;8.73;;;;;;;;;;5055082;28;20036;-41
2021/09/14 01:09:11;;;;;;;20.50;10.88;;;;;;;;;;5055000;28;20029;-42
2021/09/14 01:11:39;;;;;;;24.75;12.82;;;;;;;;;;5054914;28;20029;-43
2021/09/14 01:14:07;;;;;;;27.88;14.38;;;;;;;;;;5054859;28;20044;-43
2021/09/14 01:16:33;;;;;;;27.23;12.50;;;;;;;;;;5054893;28;20432;-43
2021/09/14 01:19:00;;;;;;;26.55;16.40;;;;;;;;;;5054756;28;20504;-44
2021/09/14 01:21:28;;;;;;;21.17;12.85;;;;;;;;;;5054738;28;20059;-43
2021/09/14 01:23:54;;;;;;;21.55;12.07;;;;;;;;;;5054470;28;20066;-43
2021/09/14 01:26:20;;;;;;;32.67;17.73;;;;;;;;;;5054659;28;20428;-44
2021/09/14 01:28:50;;;;;;;26.20;11.38;;;;;;;;;;5054818;28;20047;-42
2021/09/14 01:31:17;;;;;;;22.92;12.43;;;;;;;;;;5054591;28;20051;-43
2021/09/14 01:33:50;;;;;;;20.40;13.52;;;;;;;;;;5054250;28;20132;-44
2021/09/14 01:36:16;;;;;;;31.58;14.65;;;;;;;;;;5054362;28;20033;-43
2021/09/14 01:38:43;;;;;;;21.05;10.57;;;;;;;;;;5054348;28;20492;-44
2021/09/14 01:41:09;;;;;;;26.80;10.48;;;;;;;;;;5054470;28;20033;-43
2021/09/14 01:43:36;;;;;;;20.83;10.82;;;;;;;;;;5054260;28;20078;-43
2021/09/14 01:46:05;;;;;;;20.63;10.02;;;;;;;;;;5054287;28;20024;-43
2021/09/14 01:48:31;;;;;;;23.75;12.30;;;;;;;;;;5054242;28;20108;-43
2021/09/14 01:50:59;;;;;;;22.33;9.40;;;;;;;;;;5054138;28;20028;-43
2021/09/14 01:53:28;;;;;;;25.67;10.35;;;;;;;;;;5054403;28;20075;-45
2021/09/14 01:55:57;;;;;;;19.02;9.90;;;;;;;;;;5054144;28;20017;-44
2021/09/14 01:58:23;;;;;;;17.10;10.05;;;;;;;;;;5054134;28;20501;-44
2021/09/14 02:59:35;;;;;;;21.60;8.27;;;;;;;;;;5053234;28;20025;-43
2021/09/14 03:02:02;;;;;;;20.33;7.88;;;;;;;;;;5052980;28;20025;-43
2021/09/14 03:04:30;;;;;;;18.38;8.23;;;;;;;;;;5052867;28;20086;-43
2021/09/14 03:06:59;;;;;;;14.82;8.55;;;;;;;;;;5053057;28;20465;-44
2021/09/14 03:09:25;;;;;;;12.40;7.93;;;;;;;;;;5053180;28;20032;-43
2021/09/14 03:11:51;;;;;;;19.75;8.73;;;;;;;;;;5053118;28;20116;-44
2021/09/14 03:14:17;;;;;;;19.63;9.27;;;;;;;;;;5052943;28;20535;-45
2021/09/14 03:16:43;;;;;;;21.27;8.73;;;;;;;;;;5053143;28;20104;-44
2021/09/14 03:19:09;;;;;;;16.25;8.35;;;;;;;;;;5053009;28;20029;-44
2021/09/14 03:21:35;;;;;;;13.25;8.18;;;;;;;;;;5052785;28;20017;-44
2021/09/14 03:24:01;;;;;;;19.33;8.25;;;;;;;;;;5056729;28;20049;-45
2021/09/14 03:26:27;;;;;;;21.75;9.60;;;;;;;;;;5057022;28;20032;-44
2021/09/14 03:28:54;;;;;;;16.63;8.40;;;;;;;;;;5056990;28;20048;-45
2021/09/14 03:31:20;;;;;;;15.13;8.43;;;;;;;;;;5056903;28;20049;-44
2021/09/14 03:33:47;;;;;;;19.17;9.10;;;;;;;;;;5056691;28;20538;-44
2021/09/14 03:36:16;;;;;;;14.38;8.32;;;;;;;;;;5056899;28;20029;-44
2021/09/14 03:38:42;;;;;;;19.80;8.45;;;;;;;;;;5056692;28;20064;-45
2021/09/14 03:41:08;;;;;;;15.35;8.35;;;;;;;;;;5056797;28;20028;-44
2021/09/14 03:43:34;;;;;;;19.27;9.38;;;;;;;;;;5056745;28;20024;-44
2021/09/14 03:46:00;;;;;;;14.88;8.77;;;;;;;;;;5056592;28;20462;-44
2021/09/14 03:48:27;;;;;;;15.00;8.27;;;;;;;;;;5056711;28;20039;-44
2021/09/14 03:50:53;;;;;;;21.50;9.07;;;;;;;;;;5056430;28;20025;-44
2021/09/14 03:53:19;;;;;;;14.68;8.55;;;;;;;;;;5056465;28;20443;-45
2021/09/14 03:55:45;;;;;;;16.40;8.35;;;;;;;;;;5056673;28;20045;-45
2021/09/14 03:58:11;;;;;;;15.68;8.43;;;;;;;;;;5056618;28;20033;-43
2021/09/14 04:00:37;;;;;;;19.10;9.00;;;;;;;;;;5056235;28;20343;-44
2021/09/14 04:10:34;;;;;;;20.13;9.80;;;;;;;;;;5056242;28;20037;-44
2021/09/14 04:13:00;;;;;;;19.38;8.98;;;;;;;;;;5056343;28;20021;-45
2021/09/14 04:15:26;;;;;;;26.30;9.73;;;;;;;;;;5056310;28;20465;-44
2021/09/14 04:17:52;;;;;;;22.35;10.30;;;;;;;;;;5056199;28;20044;-44
2021/09/14 04:20:18;;;;;;;14.13;8.70;;;;;;;;;;5056093;28;20032;-44
2021/09/14 04:22:44;;;;;;;18.80;9.32;;;;;;;;;;5055623;28;20126;-44
2021/09/14 04:25:11;;;;;;;20.38;9.88;;;;;;;;;;5056065;28;20021;-45
2021/09/14 04:27:37;;;;;;;26.20;9.65;;;;;;;;;;5055862;28;20025;-44
2021/09/14 04:30:05;;;;;;;18.42;9.35;;;;;;;;;;5055936;28;20451;-44
2021/09/14 04:32:31;;;;;;;19.90;9.98;;;;;;;;;;5055784;28;20440;-44
2021/09/14 04:34:59;;;;;;;21.58;8.75;;;;;;;;;;5055434;28;20040;-45
2021/09/14 04:37:25;;;;;;;24.52;9.60;;;;;;;;;;5055614;28;20155;-46
2021/09/14 04:39:52;;;;;;;16.65;8.95;;;;;;;;;;5055592;28;20029;-45
2021/09/14 04:42:18;;;;;;;18.95;8.80;;;;;;;;;;5055618;28;20457;-47
2021/09/14 04:44:45;;;;;;;18.42;9.48;;;;;;;;;;5055416;28;20061;-44
2021/09/14 04:47:13;;;;;;;14.10;8.88;;;;;;;;;;5055656;28;20021;-45
2021/09/14 04:49:39;;;;;;;22.75;9.35;;;;;;;;;;5055740;28;20151;-45
2021/09/14 04:52:06;;;;;;;13.82;8.35;;;;;;;;;;5055443;28;20025;-45
2021/09/14 04:54:35;;;;;;;15.88;8.43;;;;;;;;;;5055237;28;20037;-46
2021/09/14 04:57:04;;;;;;;16.70;9.15;;;;;;;;;;5055303;28;20488;-46
2021/09/14 04:59:30;;;;;;;19.42;10.27;;;;;;;;;;5054416;28;20031;-43
2021/09/14 05:01:57;;;;;;;17.50;10.77;;;;;;;;;;5053704;28;20124;-46
2021/09/14 05:04:24;;;;;;;15.05;9.70;;;;;;;;;;5053701;28;20104;-43
2021/09/14 05:06:50;;;;;;;22.73;11.55;;;;;;;;;;5054097;28;20113;-44
2021/09/14 05:09:16;;;;;;;20.88;10.15;;;;;;;;;;5054521;28;20021;-43
2021/09/14 05:11:44;;;;;;;17.38;9.48;;;;;;;;;;5054052;28;20032;-45
2021/09/14 05:14:10;;;;;;;33.65;17.17;;;;;;;;;;5054835;28;20048;-46
2021/09/14 05:16:36;;;;;;;25.58;11.32;;;;;;;;;;5054853;28;20025;-43
2021/09/14 05:19:03;;;;;;;21.42;11.00;;;;;;;;;;5054718;28;20025;-44
2021/09/14 05:21:29;;;;;;;15.95;9.25;;;;;;;;;;5054750;28;20021;-44
2021/09/14 05:23:55;;;;;;;22.17;11.27;;;;;;;;;;5054422;28;20048;-45
2021/09/14 05:26:22;;;;;;;24.42;11.98;;;;;;;;;;5054686;28;20032;-45
2021/09/14 05:28:48;;;;;;;19.00;8.68;;;;;;;;;;5054733;28;20025;-43
2021/09/14 05:31:14;;;;;;;21.65;10.35;;;;;;;;;;5054561;28;20095;-42
2021/09/14 05:33:40;;;;;;;15.88;9.20;;;;;;;;;;5054493;28;20462;-43
2021/09/14 05:36:08;;;;;;;25.58;10.95;;;;;;;;;;5054510;28;20033;-45
2021/09/14 05:38:34;;;;;;;24.23;10.10;;;;;;;;;;5054619;28;20018;-44
2021/09/14 05:41:00;;;;;;;22.98;9.48;;;;;;;;;;5054680;28;20100;-44
2021/09/14 05:43:27;;;;;;;14.73;9.90;;;;;;;;;;5054495;28;20104;-43
2021/09/14 05:45:54;;;;;;;14.35;8.98;;;;;;;;;;5053688;28;20066;-43
2021/09/14 05:48:20;;;;;;;19.10;9.13;;;;;;;;;;5054588;28;20025;-44
2021/09/14 05:50:46;;;;;;;14.20;9.52;;;;;;;;;;5054334;28;20021;-43
2021/09/14 05:53:12;;;;;;;17.60;9.52;;;;;;;;;;5054176;28;20032;-43
2021/09/14 05:55:41;;;;;;;23.52;9.77;;;;;;;;;;5054294;28;20029;-43
2021/09/14 05:58:08;;;;;;;17.13;9.65;;;;;;;;;;5054155;28;20035;-43
2021/09/14 06:00:35;;;;;;;23.80;9.57;;;;;;;;;;5053938;28;20068;-43
2021/09/14 06:03:01;;;;;;;29.33;10.77;;;;;;;;;;5054080;28;20354;-43
2021/09/14 06:05:27;;;;;;;21.77;11.38;;;;;;;;;;5053987;28;20032;-43
2021/09/14 06:07:53;;;;;;;34.88;12.00;;;;;;;;;;5053842;28;20025;-43
2021/09/14 06:10:20;;;;;;;22.50;11.20;;;;;;;;;;5053896;28;20025;-43
2021/09/14 06:12:46;;;;;;;33.05;14.93;;;;;;;;;;5053922;28;20450;-44
2021/09/14 06:15:12;;;;;;;34.58;14.55;;;;;;;;;;5053588;28;20401;-43
2021/09/14 06:17:42;;;;;;;32.30;15.68;;;;;;;;;;5053788;28;20021;-44
2021/09/14 06:20:09;;;;;;;41.53;16.92;;;;;;;;;;5053901;28;20057;-44
2021/09/14 06:22:35;;;;;;;43.55;17.23;;;;;;;;;;5053568;28;20045;-44
2021/09/14 06:25:01;;;;;;;42.03;19.92;;;;;;;;;;5053916;28;20028;-44
2021/09/14 06:27:27;;;;;;;45.65;23.60;;;;;;;;;;5053894;28;20534;-44
2021/09/14 06:29:53;;;;;;;43.78;21.75;;;;;;;;;;5053820;28;20036;-43
2021/09/14 06:32:19;;;;;;;52.30;26.40;;;;;;;;;;5053777;28;20074;-43
2021/09/14 06:34:45;;;;;;;42.88;22.73;;;;;;;;;;5053447;28;20040;-44
2021/09/14 06:37:12;;;;;;;38.55;22.00;;;;;;;;;;5053575;28;20032;-43
2021/09/14 06:39:38;;;;;;;34.47;17.50;;;;;;;;;;5053630;28;20119;-44
2021/09/14 06:42:04;;;;;;;27.42;16.13;;;;;;;;;;5053474;28;20350;-44
2021/09/14 06:44:32;;;;;;;29.25;15.98;;;;;;;;;;5053435;28;20028;-45
2021/09/14 06:46:58;;;;;;;34.08;20.05;;;;;;;;;;5053805;28;20104;-45
2021/09/14 06:49:26;;;;;;;19.42;11.93;;;;;;;;;;5053566;28;20031;-44
2021/09/14 06:51:52;;;;;;;23.63;13.45;;;;;;;;;;5053507;28;20029;-43
2021/09/14 06:54:18;;;;;;;109.88;65.30;;;;;;;;;;5053514;28;20090;-43
2021/09/14 06:56:44;;;;;;;71.47;45.67;;;;;;;;;;5052333;28;20112;-43
2021/09/14 06:59:10;;;;;;;18.95;9.60;;;;;;;;;;5053412;28;20029;-44
2021/09/14 07:01:36;;;;;;;394.02;298.90;;;;;;;;;;5051644;28;20461;-41
2021/09/14 07:04:02;;;;;;;93.35;56.33;;;;;;;;;;5053127;28;20039;-43
2021/09/14 07:06:29;;;;;;;165.40;123.03;;;;;;;;;;5053326;28;20025;-40
2021/09/14 07:08:57;;;;;;;38.92;31.00;;;;;;;;;;5053276;28;20029;-40
2021/09/14 07:11:23;;;;;;;27.85;17.58;;;;;;;;;;5053179;28;20090;-43
2021/09/14 07:13:49;;;;;;;165.85;114.90;;;;;;;;;;5053141;28;20061;-43
2021/09/14 07:16:15;;;;;;;123.57;61.33;;;;;;;;;;5053153;28;20021;-44
2021/09/14 07:18:42;;;;;;;98.45;62.00;;;;;;;;;;5053247;28;20043;-41
2021/09/14 07:21:08;;;;;;;341.92;206.38;;;;;;;;;;5053212;28;20021;-43
2021/09/14 07:23:34;;;;;;;97.95;66.07;;;;;;;;;;5052816;28;20075;-40
2021/09/14 07:26:01;;;;;;;27.65;13.68;;;;;;;;;;5053144;28;20385;-41
2021/09/14 07:28:27;;;;;;;150.52;110.00;;;;;;;;;;5052796;28;20021;-42
2021/09/14 07:30:53;;;;;;;47.85;27.80;;;;;;;;;;5052712;28;20078;-40
2021/09/14 07:33:19;;;;;;;236.00;185.15;;;;;;;;;;5052632;28;20092;-42
2021/09/14 07:35:46;;;;;;;34.50;15.52;;;;;;;;;;5052832;28;20029;-43
2021/09/14 07:38:12;;;;;;;126.25;73.07;;;;;;;;;;5052803;28;20017;-45
2021/09/14 07:40:39;;;;;;;30.10;13.65;;;;;;;;;;5052708;28;20109;-45
2021/09/14 07:43:05;;;;;;;28.95;7.20;;;;;;;;;;5052633;28;20021;-43
2021/09/14 07:45:31;;;;;;;100.28;59.55;;;;;;;;;;5052576;28;20036;-46
2021/09/14 07:47:57;;;;;;;20.65;8.57;;;;;;;;;;5052852;28;20378;-45
2021/09/14 07:50:24;;;;;;;14.77;6.90;;;;;;;;;;5052601;28;20104;-43
2021/09/14 07:52:50;;;;;;;16.77;6.00;;;;;;;;;;5052548;28;20025;-43
2021/09/14 07:55:17;;;;;;;14.43;7.68;;;;;;;;;;5052644;28;20039;-45
2021/09/14 07:57:43;;;;;;;10.15;6.47;;;;;;;;;;5052545;28;20021;-45
2021/09/14 08:00:09;;;;;;;11.82;5.68;;;;;;;;;;5052484;28;20063;-45
2021/09/14 08:02:36;;;;;;;11.77;7.30;;;;;;;;;;5052583;28;20052;-46
2021/09/14 08:05:02;;;;;;;11.35;5.68;;;;;;;;;;5052714;28;20037;-43
2021/09/14 08:07:28;;;;;;;9.82;6.43;;;;;;;;;;5052356;28;20465;-45
2021/09/14 08:09:54;;;;;;;7.75;5.40;;;;;;;;;;5055734;28;20539;-45
2021/09/14 08:12:20;;;;;;;14.93;8.85;;;;;;;;;;5056125;28;20028;-47
2021/09/14 08:14:46;;;;;;;8.90;4.80;;;;;;;;;;5056027;28;20033;-48
2021/09/14 08:17:15;;;;;;;7.68;4.97;;;;;;;;;;5055899;28;20017;-45
2021/09/14 08:19:44;;;;;;;30.60;19.02;;;;;;;;;;5055894;28;20034;-45
2021/09/14 08:22:10;;;;;;;31.75;21.95;;;;;;;;;;5055818;28;20501;-46
2021/09/14 08:24:36;;;;;;;16.85;8.35;;;;;;;;;;5055849;28;20071;-45
2021/09/14 08:27:03;;;;;;;28.88;18.58;;;;;;;;;;5055859;28;20039;-46
2021/09/14 08:29:29;;;;;;;348.05;214.13;;;;;;;;;;5055864;28;20052;-46
2021/09/14 08:31:56;;;;;;;22.45;12.05;;;;;;;;;;5055591;28;20025;-45
2021/09/14 08:34:22;;;;;;;650.22;261.27;;;;;;;;;;5055843;28;20041;-46
2021/09/14 08:36:48;;;;;;;38.42;13.88;;;;;;;;;;5055728;28;20481;-47
2021/09/14 08:39:14;;;;;;;6.07;3.70;;;;;;;;;;5055696;28;20028;-46
2021/09/14 08:41:41;;;;;;;6.43;3.55;;;;;;;;;;5055843;28;20021;-45
2021/09/14 08:44:07;;;;;;;37.75;18.00;;;;;;;;;;5055679;28;20033;-45
2021/09/14 08:46:35;;;;;;;13.52;5.80;;;;;;;;;;5055471;28;20017;-47
2021/09/14 08:49:01;;;;;;;32.38;12.43;;;;;;;;;;5055516;28;20480;-46
2021/09/14 08:51:27;;;;;;;13.40;3.75;;;;;;;;;;5055496;28;20032;-47
2021/09/14 08:53:54;;;;;;;43.42;22.10;;;;;;;;;;5055198;28;20052;-47
2021/09/14 08:56:20;;;;;;;18.80;11.10;;;;;;;;;;5055484;28;20021;-46
2021/09/14 08:58:59;;;;;;;16.08;6.43;;;;;;;;;;5055344;28;20017;-46
2021/09/14 09:01:25;;;;;;;4.63;3.47;;;;;;;;;;5055200;28;20029;-47
2021/09/14 09:03:58;;;;;;;6.50;3.05;;;;;;;;;;5055349;28;20117;-46
2021/09/14 09:06:37;;;;;;;7.97;3.10;;;;;;;;;;5055387;28;20084;-47
2021/09/14 09:09:22;;;;;;;4.15;2.90;;;;;;;;;;5055435;28;20021;-45
2021/09/14 09:12:17;;;;;;;7.13;3.00;;;;;;;;;;5054947;28;20052;-46
2021/09/14 09:14:47;;;;;;;5.90;3.30;;;;;;;;;;5032950;28;20049;-47
2021/09/14 09:17:14;;;;;;;6.95;3.40;;;;;;;;;;5032840;28;20025;-47
2021/09/14 09:19:41;;;;;;;13.05;7.47;;;;;;;;;;5031960;28;20409;-47
2021/09/14 09:22:11;;;;;;;12.65;7.47;;;;;;;;;;5032665;28;20032;-46
2021/09/14 09:24:47;;;;;;;14.40;9.80;;;;;;;;;;5032733;28;20069;-46
2021/09/14 09:27:14;;;;;;;18.00;11.25;;;;;;;;;;5032790;28;20026;-48
2021/09/14 09:29:40;;;;;;;25.48;15.00;;;;;;;;;;5032670;28;20052;-48
2021/09/14 09:32:06;;;;;;;10.48;5.90;;;;;;;;;;5032860;28;20045;-47
2021/09/14 09:34:33;;;;;;;7.88;5.00;;;;;;;;;;5015796;28;20456;-46
2021/09/14 09:37:06;;;;;;;17.63;8.43;;;;;;;;;;5032626;28;20648;-46
2021/09/14 09:39:51;;;;;;;9.05;3.75;;;;;;;;;;5032533;28;20391;-47
2021/09/14 09:42:17;;;;;;;4.70;3.10;;;;;;;;;;5032458;28;20108;-47
2021/09/14 09:44:55;;;;;;;9.18;5.25;;;;;;;;;;5032465;28;20443;-48
2021/09/14 09:47:21;;;;;;;6.70;4.95;;;;;;;;;;5032364;28;20029;-47
2021/09/14 09:49:48;;;;;;;10.18;3.63;;;;;;;;;;5032496;28;20029;-47
2021/09/14 09:52:14;;;;;;;8.25;4.65;;;;;;;;;;5053685;28;20087;-46
2021/09/14 09:54:41;;;;;;;4.15;3.72;;;;;;;;;;5054340;28;20060;-47
2021/09/14 09:57:10;;;;;;;4.80;3.88;;;;;;;;;;5054240;28;20021;-48
2021/09/14 09:59:36;;;;;;;7.50;3.83;;;;;;;;;;5054046;28;20480;-47
2021/09/14 10:02:09;;;;;;;10.32;5.57;;;;;;;;;;5053925;28;20108;-48
2021/09/14 10:04:48;;;;;;;11.82;8.20;;;;;;;;;;5054331;28;20036;-47
2021/09/14 10:07:14;;;;;;;15.48;7.85;;;;;;;;;;5054094;28;20385;-47
2021/09/14 10:09:54;;;;;;;6.38;4.50;;;;;;;;;;5054077;28;20034;-47
2021/09/14 10:12:27;;;;;;;4.10;3.10;;;;;;;;;;5053846;28;20075;-46
2021/09/14 10:15:05;;;;;;;6.65;3.40;;;;;;;;;;5053735;28;20396;-46
2021/09/14 10:17:31;;;;;;;3.85;3.20;;;;;;;;;;5053754;28;20032;-47
2021/09/14 10:20:09;;;;;;;10.10;6.40;;;;;;;;;;5053809;28;20029;-46
2021/09/14 10:22:35;;;;;;;7.40;4.68;;;;;;;;;;5053443;28;20040;-46
2021/09/14 10:25:01;;;;;;;13.73;8.35;;;;;;;;;;5053635;28;20334;-47
2021/09/14 10:27:36;;;;;;;17.00;10.07;;;;;;;;;;5053504;28;20465;-46
2021/09/14 10:30:03;;;;;;;26.90;14.60;;;;;;;;;;5053936;28;20033;-46
2021/09/14 10:32:43;;;;;;;13.85;10.07;;;;;;;;;;5053459;28;20086;-47
2021/09/14 10:35:10;;;;;;;11.80;6.43;;;;;;;;;;5053554;28;20068;-48
2021/09/14 10:37:36;;;;;;;5.47;3.65;;;;;;;;;;5053568;28;20024;-46
2021/09/14 10:40:07;;;;;;;3.42;2.38;;;;;;;;;;5053352;28;20029;-46
2021/09/14 10:42:33;;;;;;;;;;;;;;;;;;5052766;28;20066;-47
2021/09/14 10:45:05;;;;;;;5.75;3.92;;;;;;;;;;5053332;28;19992;-47
2021/09/14 10:47:36;;;;;;;5.85;3.17;;;;;;;;;;5053351;28;20029;-47
2021/09/14 10:50:04;;;;;;;6.15;3.67;;;;;;;;;;5053210;28;20032;-47
2021/09/14 10:52:31;;;;;;;6.00;3.03;;;;;;;;;;5053141;28;20057;-47
2021/09/14 10:54:58;;;;;;;4.55;3.72;;;;;;;;;;5053075;28;20547;-47
2021/09/14 10:57:34;;;;;;;3.53;2.47;;;;;;;;;;5053339;28;20381;-48
2021/09/14 11:00:00;;;;;;;3.83;2.78;;;;;;;;;;5053207;28;20021;-43
2021/09/14 11:02:26;;;;;;;91.72;62.20;;;;;;;;;;5053133;28;20424;-44
2021/09/14 11:04:55;;;;;;;50.22;33.72;;;;;;;;;;5052936;28;20492;-44
2021/09/14 11:07:21;;;;;;;97.20;48.90;;;;;;;;;;5052860;28;20091;-46
2021/09/14 11:09:54;;;;;;;40.88;22.90;;;;;;;;;;5053081;28;20036;-46
2021/09/14 11:12:21;;;;;;;18.00;11.75;;;;;;;;;;5053228;28;20025;-48
2021/09/14 11:14:47;;;;;;;16.55;12.43;;;;;;;;;;5052908;28;20029;-47
2021/09/14 11:17:33;;;;;;;11.10;7.32;;;;;;;;;;5052904;28;20025;-46
2021/09/14 11:20:31;;;;;;;5.82;4.10;;;;;;;;;;5052800;28;20493;-46
2021/09/14 11:22:59;;;;;;;7.75;4.72;;;;;;;;;;5030826;28;20060;-47
2021/09/14 11:25:26;;;;;;;5.15;4.55;;;;;;;;;;5030883;28;20048;-45
2021/09/14 11:27:55;;;;;;;5.63;3.60;;;;;;;;;;5030820;28;20033;-45
2021/09/14 11:30:22;;;;;;;6.55;3.15;;;;;;;;;;5030774;28;20029;-45
2021/09/14 11:32:48;;;;;;;6.80;3.95;;;;;;;;;;5030689;28;20037;-42
2021/09/14 11:35:16;;;;;;;4.97;3.70;;;;;;;;;;5030732;28;20045;-45
2021/09/14 11:37:42;;;;;;;5.38;3.50;;;;;;;;;;5031088;28;20152;-47
2021/09/14 11:40:18;;;;;;;5.40;3.00;;;;;;;;;;5031347;28;20044;-45
2021/09/14 11:42:53;;;;;;;6.93;3.20;;;;;;;;;;5030950;28;20022;-45
2021/09/14 11:45:21;;;;;;;6.60;3.22;;;;;;;;;;5034935;28;20037;-43
2021/09/14 11:47:47;;;;;;;4.43;2.60;;;;;;;;;;5034919;28;20385;-46
2021/09/14 11:50:22;;;;;;;7.93;3.85;;;;;;;;;;5035093;28;20164;-44
2021/09/14 11:52:48;;;;;;;6.28;4.13;;;;;;;;;;5034541;28;20514;-46
2021/09/14 11:55:15;;;;;;;4.88;4.03;;;;;;;;;;5034769;28;20045;-44
2021/09/14 11:57:41;;;;;;;5.68;4.18;;;;;;;;;;5037824;28;20358;-47
2021/09/14 12:00:11;;;;;;;5.93;3.28;;;;;;;;;;5056846;28;20029;-46
2021/09/14 12:02:37;;;;;;;4.70;3.20;;;;;;;;;;5057097;28;20025;-47
2021/09/14 12:05:03;;;;;;;3.90;2.92;;;;;;;;;;5056598;28;20037;-46
2021/09/14 12:07:29;;;;;;;4.72;3.47;;;;;;;;;;5056681;28;20090;-46
2021/09/14 12:10:04;;;;;;;6.43;3.15;;;;;;;;;;5056513;28;20033;-47
2021/09/14 12:12:31;;;;;;;4.68;3.30;;;;;;;;;;5056383;28;20023;-45
2021/09/14 12:14:57;;;;;;;5.50;2.97;;;;;;;;;;5056491;28;20037;-45
2021/09/14 12:17:29;;;;;;;8.60;3.15;;;;;;;;;;5056418;28;20381;-42
2021/09/14 12:19:55;;;;;;;4.22;3.03;;;;;;;;;;5056411;28;20032;-43
2021/09/14 12:22:21;;;;;;;3.42;3.10;;;;;;;;;;5056282;28;20037;-45
2021/09/14 12:24:47;;;;;;;9.25;3.25;;;;;;;;;;5056147;28;20116;-43
2021/09/14 12:27:13;;;;;;;3.60;2.65;;;;;;;;;;5055285;28;20021;-43
2021/09/14 12:29:39;;;;;;;7.22;2.97;;;;;;;;;;5056306;28;20421;-46
2021/09/14 12:32:05;;;;;;;7.88;3.20;;;;;;;;;;5056063;28;20028;-45
2021/09/14 12:34:31;;;;;;;6.22;3.03;;;;;;;;;;5055973;28;20041;-45
2021/09/14 12:36:58;;;;;;;5.63;3.17;;;;;;;;;;5056057;28;20025;-46
2021/09/14 12:39:24;;;;;;;9.43;3.42;;;;;;;;;;5055409;28;20381;-45
2021/09/14 12:41:50;;;;;;;12.25;3.72;;;;;;;;;;5054865;28;20021;-43
2021/09/14 12:44:16;;;;;;;29.15;20.13;;;;;;;;;;5054759;28;20037;-44
2021/09/14 12:46:42;;;;;;;33.60;22.27;;;;;;;;;;5055499;28;20036;-41
2021/09/14 12:49:10;;;;;;;56.50;39.05;;;;;;;;;;5055403;28;20101;-41
2021/09/14 12:51:37;;;;;;;50.85;34.97;;;;;;;;;;5055366;28;20048;-42
2021/09/14 12:54:03;;;;;;;49.00;31.02;;;;;;;;;;5054822;28;20104;-42
2021/09/14 12:56:29;;;;;;;43.30;31.65;;;;;;;;;;5055030;28;20025;-41
2021/09/14 12:58:55;;;;;;;49.80;30.38;;;;;;;;;;5055050;28;20075;-41
2021/09/14 13:01:21;;;;;;;44.83;25.20;;;;;;;;;;5054904;28;20032;-41
2021/09/14 13:03:47;;;;;;;42.55;24.48;;;;;;;;;;5054768;28;20477;-43
2021/09/14 13:06:13;;;;;;;32.80;21.90;;;;;;;;;;5054841;28;20029;-41
2021/09/14 13:08:39;;;;;;;44.47;27.17;;;;;;;;;;5054673;28;20032;-42
2021/09/14 13:11:06;;;;;;;44.58;30.27;;;;;;;;;;5052041;28;20385;-42
2021/09/14 13:16:17;;;;;;;41.22;24.20;;;;;;;;;;5051539;28;20060;-43
2021/09/14 13:18:44;;;;;;;25.95;12.05;;;;;;;;;;5025630;28;20031;-42
2021/09/14 13:21:10;;;;;;;21.15;12.77;;;;;;;;;;5023244;28;20090;-42
2021/09/14 13:23:37;;;;;;;37.28;23.70;;;;;;;;;;5022762;28;20052;-41
2021/09/14 13:26:04;;;;;;;25.08;18.55;;;;;;;;;;5023057;28;20026;-42
2021/09/14 13:28:30;;;;;;;30.98;18.65;;;;;;;;;;5023111;28;20694;-43
2021/09/14 13:30:56;;;;;;;20.25;11.27;;;;;;;;;;5022849;28;20028;-42
2021/09/14 13:33:22;;;;;;;10.48;4.78;;;;;;;;;;5022857;28;20033;-42
2021/09/14 13:35:49;;;;;;;14.65;7.47;;;;;;;;;;5023979;28;20076;-41
2021/09/14 13:38:15;;;;;;;12.65;7.70;;;;;;;;;;5022857;28;20037;-41
2021/09/14 13:40:44;;;;;;;11.35;5.05;;;;;;;;;;5022876;28;20435;-41
2021/09/14 13:43:10;;;;;;;5.57;3.60;;;;;;;;;;5023047;28;20071;-41
2021/09/14 13:48:22;;;;;;;8.70;4.80;;;;;;;;;;5022945;28;20044;-41
2021/09/14 13:50:48;;;;;;;9.00;3.90;;;;;;;;;;5022803;28;20509;-42
2021/09/14 13:53:16;;;;;;;7.38;3.50;;;;;;;;;;5022231;28;20037;-41
2021/09/14 13:55:42;;;;;;;10.95;3.67;;;;;;;;;;5022194;28;20486;-42
2021/09/14 13:58:08;;;;;;;21.17;4.30;;;;;;;;;;5022368;28;20107;-42
2021/09/14 14:00:34;;;;;;;9.98;4.03;;;;;;;;;;5022445;28;20017;-42
2021/09/14 14:03:00;;;;;;;6.95;3.70;;;;;;;;;;5022280;28;20345;-45
2021/09/14 14:05:27;;;;;;;4.88;3.20;;;;;;;;;;5022141;28;20030;-43
2021/09/14 14:07:53;;;;;;;12.75;4.55;;;;;;;;;;5022070;28;20497;-41
2021/09/14 14:10:19;;;;;;;11.10;3.55;;;;;;;;;;5021709;28;20502;-41
2021/09/14 14:12:45;;;;;;;11.35;7.55;;;;;;;;;;5021602;28;20025;-42
2021/09/14 14:15:11;;;;;;;33.47;23.73;;;;;;;;;;5021904;28;20029;-41
2021/09/14 14:17:37;;;;;;;25.83;17.85;;;;;;;;;;5021670;28;20100;-42
2021/09/14 14:20:04;;;;;;;18.25;10.27;;;;;;;;;;5024467;28;20030;-42
2021/09/14 14:22:30;;;;;;;12.55;7.60;;;;;;;;;;5033661;28;20037;-45
2021/09/14 14:24:56;;;;;;;56.80;10.60;;;;;;;;;;5033825;28;20029;-44
2021/09/14 14:27:23;;;;;;;14.20;5.15;;;;;;;;;;5033863;28;20034;-42
2021/09/14 14:29:49;;;;;;;14.13;4.88;;;;;;;;;;5033747;28;20036;-44
2021/09/14 14:32:15;;;;;;;12.75;4.30;;;;;;;;;;5033735;28;20021;-42
2021/09/14 14:34:44;;;;;;;14.48;3.90;;;;;;;;;;5033578;28;20049;-43
2021/09/14 14:37:10;;;;;;;14.02;3.25;;;;;;;;;;5033736;28;20038;-41
2021/09/14 14:39:36;;;;;;;10.20;2.97;;;;;;;;;;5033521;28;20021;-47
2021/09/14 14:42:02;;;;;;;7.90;3.40;;;;;;;;;;5033581;28;20535;-43
2021/09/14 14:44:28;;;;;;;5.30;2.95;;;;;;;;;;5033646;28;20026;-43
2021/09/14 14:46:54;;;;;;;8.25;3.17;;;;;;;;;;5033642;28;20026;-45
2021/09/14 14:49:20;;;;;;;40.83;24.33;;;;;;;;;;5035304;28;20437;-45
2021/09/14 14:51:46;;;;;;;22.58;13.75;;;;;;;;;;5053116;28;20071;-44
2021/09/14 14:54:12;;;;;;;21.48;12.25;;;;;;;;;;5052996;28;20087;-46
2021/09/14 14:56:38;;;;;;;82.72;33.28;;;;;;;;;;5053107;28;20109;-51
2021/09/14 14:59:05;;;;;;;73.28;53.25;;;;;;;;;;5052933;28;20013;-48
2021/09/14 15:01:31;;;;;;;19.98;15.40;;;;;;;;;;5053153;28;20159;-49
2021/09/14 15:03:57;;;;;;;17.38;5.47;;;;;;;;;;5052981;28;20048;-47
2021/09/14 15:06:23;;;;;;;8.43;3.92;;;;;;;;;;5053072;28;20178;-51
2021/09/14 15:08:49;;;;;;;5.30;3.25;;;;;;;;;;5052948;28;20032;-45
2021/09/14 15:11:15;;;;;;;16.23;10.75;;;;;;;;;;5053011;28;20025;-43
2021/09/14 15:13:41;;;;;;;10.48;5.47;;;;;;;;;;5053010;28;20469;-44
2021/09/14 15:16:07;;;;;;;26.77;18.98;;;;;;;;;;5053220;28;20078;-50
2021/09/14 15:18:33;;;;;;;23.23;16.85;;;;;;;;;;5054514;28;20025;-46
2021/09/14 15:20:59;;;;;;;25.73;18.05;;;;;;;;;;5056230;28;20017;-41
2021/09/14 15:23:26;;;;;;;41.78;22.35;;;;;;;;;;5054227;28;20095;-45
2021/09/14 15:25:52;;;;;;;61.08;42.15;;;;;;;;;;5055724;28;20021;-49
2021/09/14 15:28:20;;;;;;;10.82;7.95;;;;;;;;;;5054399;28;20053;-48
2021/09/14 15:30:47;;;;;;;18.40;11.52;;;;;;;;;;5055424;28;20032;-46
2021/09/14 15:33:13;;;;;;;33.78;26.60;;;;;;;;;;5054812;28;20033;-46
2021/09/14 15:35:39;;;;;;;12.95;8.48;;;;;;;;;;5055193;28;20029;-49
2021/09/14 15:38:22;;;;;;;10.57;5.22;;;;;;;;;;5055189;28;20028;-44